createdAt,value
2017-10-22T00:01:52.249Z,18.77
2017-10-22T00:04:19.805Z,16.87
2017-10-22T00:06:47.277Z,18.37
2017-10-22T00:09:15.497Z,15.83
2017-10-22T00:11:42.972Z,16.43
2017-10-22T00:14:10.447Z,18.60
2017-10-22T00:16:37.909Z,17.53
2017-10-22T00:19:05.369Z,23.37
2017-10-22T00:21:32.837Z,13.20
2017-10-22T00:24:01.078Z,15.53
2017-10-22T00:26:28.557Z,17.37
2017-10-22T00:28:56.043Z,15.33
2017-10-22T00:31:23.564Z,17.33
2017-10-22T00:33:51.793Z,16.60
2017-10-22T00:36:19.288Z,21.93
2017-10-22T00:38:46.751Z,16.50
2017-10-22T00:41:14.318Z,18.50
2017-10-22T00:43:41.799Z,17.23
2017-10-22T00:46:09.264Z,21.63
2017-10-22T00:48:36.790Z,15.30
2017-10-22T00:51:04.271Z,22.83
2017-10-22T00:53:32.502Z,22.33
2017-10-22T00:55:59.973Z,22.13
2017-10-22T00:58:27.448Z,16.87
2017-10-22T01:00:55.695Z,25.17
2017-10-22T01:03:23.161Z,14.00
2017-10-22T01:05:50.638Z,21.30
2017-10-22T01:08:18.902Z,21.50
2017-10-22T01:10:46.378Z,17.33
2017-10-22T01:13:14.645Z,20.80
2017-10-22T01:15:42.881Z,19.30
2017-10-22T01:18:10.465Z,21.50
2017-10-22T01:20:37.934Z,14.93
2017-10-22T01:23:06.198Z,15.97
2017-10-22T01:25:33.675Z,15.70
2017-10-22T01:28:01.930Z,22.13
2017-10-22T01:30:29.396Z,22.83
2017-10-22T01:32:57.678Z,18.10
2017-10-22T01:35:25.947Z,25.33
2017-10-22T01:37:53.400Z,17.10
2017-10-22T01:40:21.646Z,18.13
2017-10-22T01:42:49.113Z,16.90
2017-10-22T01:45:16.606Z,17.73
2017-10-22T01:47:44.072Z,17.67
2017-10-22T01:50:11.582Z,18.20
2017-10-22T01:52:39.051Z,18.83
2017-10-22T01:55:06.523Z,15.30
2017-10-22T01:57:34.762Z,23.47
2017-10-22T02:00:02.233Z,14.57
2017-10-22T02:02:29.709Z,15.33
2017-10-22T02:04:57.953Z,18.20
2017-10-22T02:07:25.524Z,18.40
2017-10-22T02:09:52.998Z,24.07
2017-10-22T02:12:21.242Z,19.60
2017-10-22T02:14:48.826Z,16.30
2017-10-22T02:17:16.301Z,22.80
2017-10-22T02:19:44.610Z,14.70
2017-10-22T02:22:12.082Z,16.70
2017-10-22T02:24:39.625Z,14.90
2017-10-22T02:27:07.090Z,16.47
2017-10-22T02:29:34.581Z,19.60
2017-10-22T02:32:02.049Z,14.77
2017-10-22T02:34:29.592Z,17.57
2017-10-22T02:36:57.153Z,18.30
2017-10-22T02:39:24.612Z,18.40
2017-10-22T02:41:52.169Z,15.93
2017-10-22T02:44:19.636Z,16.53
2017-10-22T02:46:47.108Z,16.33
2017-10-22T02:49:15.354Z,20.27
2017-10-22T02:51:42.817Z,14.37
2017-10-22T02:54:10.369Z,16.23
2017-10-22T02:56:37.929Z,14.63
2017-10-22T02:59:05.498Z,16.70
2017-10-22T03:01:33.050Z,19.30
2017-10-22T03:04:00.525Z,15.37
2017-10-22T03:06:28.775Z,14.00
2017-10-22T03:08:56.308Z,19.40
2017-10-22T03:11:23.781Z,14.30
2017-10-22T03:13:51.370Z,17.47
2017-10-22T03:16:18.825Z,16.73
2017-10-22T03:18:46.298Z,17.40
2017-10-22T03:21:14.558Z,19.77
2017-10-22T03:23:42.022Z,12.00
2017-10-22T03:26:10.261Z,17.00
2017-10-22T03:28:37.832Z,15.70
2017-10-22T03:31:05.302Z,10.50
2017-10-22T03:33:32.753Z,13.73
2017-10-22T03:36:00.306Z,12.50
2017-10-22T03:38:27.765Z,10.10
2017-10-22T03:40:55.384Z,10.53
2017-10-22T03:43:22.889Z,10.00
2017-10-22T03:45:50.353Z,11.73
2017-10-22T03:48:18.580Z,8.67
2017-10-22T03:50:46.084Z,8.83
2017-10-22T03:53:13.633Z,8.43
2017-10-22T03:55:41.199Z,10.00
2017-10-22T03:58:08.738Z,7.33
2017-10-22T04:00:36.209Z,10.07
2017-10-22T04:03:03.664Z,6.73
2017-10-22T04:05:31.226Z,7.10
2017-10-22T04:07:58.736Z,7.00
2017-10-22T04:10:26.238Z,9.70
2017-10-22T04:12:53.701Z,16.13
2017-10-22T04:15:21.960Z,8.73
2017-10-22T04:17:49.423Z,10.80
2017-10-22T04:20:17.000Z,7.10
2017-10-22T04:22:44.470Z,7.30
2017-10-22T04:25:12.727Z,7.20
2017-10-22T04:27:40.206Z,8.60
2017-10-22T04:30:07.741Z,8.00
2017-10-22T04:32:35.293Z,9.73
2017-10-22T04:35:02.762Z,5.67
2017-10-22T04:37:31.001Z,6.40
2017-10-22T04:39:58.462Z,6.70
2017-10-22T04:42:26.039Z,8.73
2017-10-22T04:44:53.493Z,7.73
2017-10-22T04:47:20.967Z,5.30
2017-10-22T04:49:49.221Z,5.20
2017-10-22T04:52:16.686Z,7.13
2017-10-22T04:54:44.232Z,5.23
2017-10-22T04:57:11.812Z,10.50
2017-10-22T04:59:39.273Z,5.60
2017-10-22T05:02:07.505Z,7.30
2017-10-22T05:04:34.993Z,6.23
2017-10-22T05:07:02.447Z,7.40
2017-10-22T05:09:30.031Z,8.73
2017-10-22T05:11:58.257Z,6.17
2017-10-22T05:14:25.723Z,8.03
2017-10-22T05:16:53.186Z,7.87
2017-10-22T05:19:20.645Z,6.43
2017-10-22T05:21:48.118Z,8.77
2017-10-22T05:24:15.577Z,9.57
2017-10-22T05:26:43.837Z,8.33
2017-10-22T05:29:11.296Z,7.33
2017-10-22T05:31:38.856Z,6.57
2017-10-22T05:34:06.323Z,7.27
2017-10-22T05:36:34.586Z,8.80
2017-10-22T05:39:05.973Z,5.30
2017-10-22T05:41:33.446Z,9.10
2017-10-22T05:44:00.902Z,6.73
2017-10-22T05:46:28.370Z,6.40
2017-10-22T05:48:55.862Z,7.60
2017-10-22T05:51:23.413Z,7.83
2017-10-22T05:53:50.872Z,7.97
2017-10-22T05:56:18.491Z,4.50
2017-10-22T05:58:45.993Z,10.83
2017-10-22T06:01:13.462Z,5.73
2017-10-22T06:03:41.783Z,4.87
2017-10-22T06:06:09.262Z,5.60
2017-10-22T06:08:36.739Z,7.47
2017-10-22T06:11:04.223Z,5.10
2017-10-22T06:13:32.474Z,5.60
2017-10-22T06:15:59.946Z,7.97
2017-10-22T06:18:28.262Z,6.50
2017-10-22T06:20:55.821Z,6.10
2017-10-22T06:23:23.322Z,7.30
2017-10-22T06:25:50.794Z,6.40
2017-10-22T06:28:19.039Z,3.80
2017-10-22T06:30:46.504Z,3.43
2017-10-22T06:33:13.977Z,5.87
2017-10-22T06:35:41.437Z,3.80
2017-10-22T06:38:08.893Z,3.97
2017-10-22T06:40:37.171Z,13.30
2017-10-22T06:43:04.622Z,5.83
2017-10-22T06:45:32.898Z,3.23
2017-10-22T06:48:00.453Z,11.53
2017-10-22T06:50:28.001Z,9.90
2017-10-22T06:52:55.573Z,4.30
2017-10-22T06:55:23.801Z,8.87
2017-10-22T06:57:51.269Z,3.90
2017-10-22T07:00:18.759Z,3.23
2017-10-22T07:02:46.304Z,7.87
2017-10-22T07:05:13.779Z,2.83
2017-10-22T07:07:41.248Z,7.73
2017-10-22T07:10:09.499Z,5.10
2017-10-22T07:12:36.968Z,11.70
2017-10-22T07:15:05.238Z,7.60
2017-10-22T07:17:33.470Z,8.20
2017-10-22T07:20:00.970Z,7.33
2017-10-22T07:22:28.421Z,4.20
2017-10-22T07:24:55.981Z,3.07
2017-10-22T07:27:23.457Z,8.40
2017-10-22T07:29:51.819Z,3.97
2017-10-22T07:32:19.285Z,5.77
2017-10-22T07:34:47.545Z,14.60
2017-10-22T07:37:15.100Z,2.63
2017-10-22T07:39:42.565Z,9.50
2017-10-22T07:42:10.113Z,6.50
2017-10-22T07:44:37.678Z,8.57
2017-10-22T07:47:05.141Z,7.73
2017-10-22T07:49:32.602Z,9.03
2017-10-22T07:52:00.159Z,5.43
2017-10-22T07:54:27.736Z,5.53
2017-10-22T07:56:55.962Z,9.50
2017-10-22T07:59:23.428Z,4.53
2017-10-22T08:01:50.901Z,3.60
2017-10-22T08:04:18.356Z,4.90
2017-10-22T08:06:45.818Z,7.57
2017-10-22T08:09:13.301Z,5.60
2017-10-22T08:11:41.540Z,3.47
2017-10-22T08:14:09.001Z,6.13
2017-10-22T08:16:37.245Z,6.17
2017-10-22T08:19:04.711Z,6.60
2017-10-22T08:21:32.168Z,8.93
2017-10-22T08:23:59.628Z,4.50
2017-10-22T08:26:27.102Z,7.47
2017-10-22T08:28:54.663Z,4.13
2017-10-22T08:31:22.126Z,5.00
2017-10-22T08:33:49.683Z,8.77
2017-10-22T08:36:17.140Z,6.27
2017-10-22T08:38:44.605Z,6.67
2017-10-22T08:41:12.865Z,3.63
2017-10-22T08:43:40.334Z,10.53
2017-10-22T08:46:08.600Z,5.67
2017-10-22T08:48:36.163Z,3.37
2017-10-22T08:51:03.621Z,6.63
2017-10-22T08:53:31.881Z,8.27
2017-10-22T08:55:59.450Z,8.33
2017-10-22T08:58:26.956Z,3.23
2017-10-22T09:00:54.427Z,7.17
2017-10-22T09:03:21.892Z,5.47
2017-10-22T09:05:49.365Z,9.70
2017-10-22T09:08:16.830Z,4.40
2017-10-22T09:10:44.396Z,5.67
2017-10-22T09:13:12.720Z,10.50
2017-10-22T09:15:40.221Z,5.03
2017-10-22T09:18:07.706Z,5.47
2017-10-22T09:20:35.955Z,4.50
2017-10-22T09:23:03.419Z,10.63
2017-10-22T09:25:30.885Z,5.20
2017-10-22T09:27:59.142Z,4.20
2017-10-22T09:30:26.693Z,7.20
2017-10-22T09:32:54.258Z,7.67
2017-10-22T09:35:21.745Z,5.67
2017-10-22T09:37:49.994Z,7.23
2017-10-22T09:40:17.560Z,4.43
2017-10-22T09:42:45.884Z,2.70
2017-10-22T09:45:13.390Z,4.50
2017-10-22T09:47:40.872Z,5.50
2017-10-22T09:50:08.348Z,6.27
2017-10-22T09:52:35.858Z,4.20
2017-10-22T09:55:03.326Z,10.20
2017-10-22T09:57:30.929Z,3.87
2017-10-22T09:59:58.399Z,7.03
2017-10-22T10:02:25.868Z,6.40
2017-10-22T10:04:53.340Z,5.03
2017-10-22T10:07:20.905Z,3.03
2017-10-22T10:09:49.150Z,1.83
2017-10-22T10:12:16.638Z,8.20
2017-10-22T10:14:44.113Z,5.70
2017-10-22T10:17:12.329Z,7.60
2017-10-22T10:19:39.821Z,3.37
2017-10-22T10:22:07.282Z,7.27
2017-10-22T10:24:36.263Z,3.83
2017-10-22T10:27:03.712Z,6.10
2017-10-22T10:29:31.289Z,6.47
2017-10-22T10:31:58.801Z,5.80
2017-10-22T10:34:26.253Z,2.70
2017-10-22T10:36:53.744Z,10.53
2017-10-22T10:39:21.233Z,8.33
2017-10-22T10:41:49.486Z,9.13
2017-10-22T10:44:16.949Z,4.20
2017-10-22T10:46:44.506Z,7.90
2017-10-22T10:49:12.061Z,6.40
2017-10-22T10:51:39.626Z,9.47
2017-10-22T10:54:07.077Z,9.73
2017-10-22T10:56:34.593Z,6.27
2017-10-22T10:59:02.098Z,9.50
2017-10-22T11:01:29.652Z,5.80
2017-10-22T11:03:57.105Z,2.50
2017-10-22T11:06:26.098Z,9.60
2017-10-22T11:08:53.563Z,6.77
2017-10-22T11:11:21.117Z,4.03
2017-10-22T11:13:48.683Z,4.73
2017-10-22T11:16:16.143Z,7.80
2017-10-22T11:18:43.601Z,3.47
2017-10-22T11:21:11.062Z,3.03
2017-10-22T11:23:39.289Z,3.70
2017-10-22T11:26:06.779Z,7.43
2017-10-22T11:28:34.334Z,7.50
2017-10-22T11:31:01.892Z,3.13
2017-10-22T11:33:29.444Z,4.90
2017-10-22T11:35:57.008Z,4.40
2017-10-22T11:38:24.586Z,5.17
2017-10-22T11:40:52.143Z,3.57
2017-10-22T11:43:19.643Z,5.97
2017-10-22T11:45:47.091Z,6.43
2017-10-22T11:48:14.554Z,5.17
2017-10-22T11:50:42.053Z,5.23
2017-10-22T11:53:09.537Z,4.80
2017-10-22T11:55:37.759Z,5.10
2017-10-22T11:58:05.220Z,7.03
2017-10-22T12:00:32.763Z,3.70
2017-10-22T12:03:00.231Z,5.50
2017-10-22T12:05:27.685Z,6.60
2017-10-22T12:07:55.141Z,5.10
2017-10-22T12:10:22.637Z,5.40
2017-10-22T12:12:50.099Z,6.03
2017-10-22T12:15:18.350Z,10.20
2017-10-22T12:17:45.816Z,5.40
2017-10-22T12:20:13.273Z,6.03
2017-10-22T12:22:40.829Z,9.23
2017-10-22T12:25:08.400Z,3.97
2017-10-22T12:27:35.861Z,3.40
2017-10-22T12:30:04.094Z,3.37
2017-10-22T12:32:31.548Z,4.03
2017-10-22T12:34:59.018Z,6.30
2017-10-22T12:37:26.499Z,9.40
2017-10-22T12:39:54.052Z,4.40
2017-10-22T12:42:21.517Z,6.30
2017-10-22T12:44:48.978Z,8.83
2017-10-22T12:47:16.482Z,11.17
2017-10-22T12:49:43.944Z,2.97
2017-10-22T12:52:11.422Z,5.20
2017-10-22T12:54:38.895Z,5.60
2017-10-22T12:57:06.453Z,5.20
2017-10-22T12:59:34.012Z,3.10
2017-10-22T13:02:02.245Z,3.80
2017-10-22T13:04:29.745Z,7.43
2017-10-22T13:06:57.305Z,3.80
2017-10-22T13:09:24.862Z,5.27
2017-10-22T13:11:52.376Z,3.07
2017-10-22T13:14:19.883Z,7.10
2017-10-22T13:16:47.438Z,2.13
2017-10-22T13:19:15.002Z,4.60
2017-10-22T13:21:42.553Z,5.27
2017-10-22T13:24:10.830Z,4.10
2017-10-22T13:26:38.284Z,6.37
2017-10-22T13:29:05.753Z,5.10
2017-10-22T13:31:35.635Z,1.30
2017-10-22T13:34:04.424Z,4.63
2017-10-22T13:36:32.314Z,7.47
2017-10-22T13:38:59.793Z,2.13
2017-10-22T13:41:28.026Z,5.03
2017-10-22T13:43:55.513Z,5.27
2017-10-22T13:46:23.739Z,4.43
2017-10-22T13:48:51.225Z,5.57
2017-10-22T13:51:18.788Z,3.23
2017-10-22T13:53:46.254Z,8.13
2017-10-22T13:56:13.799Z,5.83
2017-10-22T13:58:41.294Z,4.60
2017-10-22T14:01:08.812Z,6.97
2017-10-22T14:03:36.438Z,8.30
2017-10-22T14:06:03.942Z,3.03
2017-10-22T14:08:31.511Z,7.40
2017-10-22T14:10:59.064Z,7.60
2017-10-22T14:13:26.512Z,4.40
2017-10-22T14:15:53.978Z,6.33
2017-10-22T14:18:21.444Z,9.50
2017-10-22T14:20:49.686Z,5.50
2017-10-22T14:23:17.146Z,5.33
2017-10-22T14:25:44.716Z,4.20
2017-10-22T14:28:12.282Z,10.53
2017-10-22T14:30:39.753Z,10.13
2017-10-22T14:33:08.007Z,8.60
2017-10-22T14:35:35.574Z,7.30
2017-10-22T14:38:03.816Z,11.23
2017-10-22T14:40:31.287Z,6.43
2017-10-22T14:42:58.744Z,5.27
2017-10-22T14:45:26.317Z,4.77
2017-10-22T14:47:53.790Z,5.57
2017-10-22T14:50:22.031Z,5.07
2017-10-22T14:52:49.597Z,4.17
2017-10-22T14:55:17.837Z,7.60
2017-10-22T14:57:45.310Z,5.33
2017-10-22T15:00:12.773Z,6.07
2017-10-22T15:02:40.306Z,7.70
2017-10-22T15:05:07.777Z,5.60
2017-10-22T15:07:35.229Z,5.07
2017-10-22T15:10:02.699Z,6.53
2017-10-22T15:12:30.167Z,4.87
2017-10-22T15:14:57.628Z,5.00
2017-10-22T15:17:25.148Z,6.20
2017-10-22T15:19:52.610Z,5.50
2017-10-22T15:22:20.074Z,7.50
2017-10-22T15:24:47.553Z,5.43
2017-10-22T15:27:15.030Z,6.30
2017-10-22T15:29:42.569Z,6.67
2017-10-22T15:32:10.034Z,7.00
2017-10-22T15:34:37.506Z,3.60
2017-10-22T15:37:05.740Z,5.47
2017-10-22T15:39:33.321Z,7.40
2017-10-22T15:42:00.786Z,9.63
2017-10-22T15:44:28.334Z,6.40
2017-10-22T15:46:55.801Z,5.73
2017-10-22T15:49:23.361Z,8.80
2017-10-22T15:51:50.939Z,5.80
2017-10-22T15:54:19.252Z,5.53
2017-10-22T15:56:46.708Z,6.03
2017-10-22T15:59:15.804Z,5.93
2017-10-22T16:01:43.285Z,12.17
2017-10-22T16:04:10.746Z,6.60
2017-10-22T16:06:38.226Z,4.10
2017-10-22T16:09:05.699Z,10.03
2017-10-22T16:11:33.944Z,7.93
2017-10-22T16:14:01.430Z,4.40
2017-10-22T16:16:29.762Z,6.10
2017-10-22T16:18:57.293Z,4.20
2017-10-22T16:21:24.798Z,12.53
2017-10-22T16:23:52.282Z,6.17
2017-10-22T16:26:19.744Z,5.70
2017-10-22T16:28:47.294Z,9.63
2017-10-22T16:31:15.577Z,4.60
2017-10-22T16:33:43.156Z,7.62
2017-10-22T16:36:10.631Z,11.00
2017-10-22T16:38:38.134Z,3.23
2017-10-22T16:41:06.389Z,6.07
2017-10-22T16:43:33.874Z,6.47
2017-10-22T16:46:02.101Z,5.50
2017-10-22T16:48:29.577Z,3.07
2017-10-22T16:50:57.033Z,2.57
2017-10-22T16:53:24.602Z,6.27
2017-10-22T16:55:52.854Z,6.00
2017-10-22T16:58:20.339Z,9.30
2017-10-22T17:00:48.574Z,6.40
2017-10-22T17:03:16.117Z,7.05
2017-10-22T17:05:43.587Z,8.90
2017-10-22T17:08:11.058Z,3.80
2017-10-22T17:10:38.544Z,7.10
2017-10-22T17:13:06.778Z,2.50
2017-10-22T17:15:34.321Z,6.00
2017-10-22T17:18:01.793Z,3.63
2017-10-22T17:20:29.372Z,4.60
2017-10-22T17:22:56.829Z,2.60
2017-10-22T17:25:25.814Z,10.63
2017-10-22T17:27:53.274Z,4.63
2017-10-22T17:30:20.965Z,4.00
2017-10-22T17:32:49.200Z,5.25
2017-10-22T17:35:16.681Z,9.50
2017-10-22T17:37:44.238Z,9.73
2017-10-22T17:40:11.791Z,2.37
2017-10-22T17:42:39.365Z,2.87
2017-10-22T17:45:07.630Z,8.40
2017-10-22T17:47:35.102Z,5.85
2017-10-22T17:50:03.365Z,5.13
2017-10-22T17:52:30.862Z,6.33
2017-10-22T17:54:58.338Z,9.07
2017-10-22T17:57:25.813Z,7.07
2017-10-22T17:59:53.384Z,7.57
2017-10-22T18:02:20.947Z,8.43
2017-10-22T18:04:48.414Z,8.38
2017-10-22T18:07:16.666Z,4.23
2017-10-22T18:09:44.139Z,13.70
2017-10-22T18:12:11.623Z,6.03
2017-10-22T18:14:39.884Z,8.68
2017-10-22T18:17:08.130Z,4.32
2017-10-22T18:19:35.764Z,7.15
2017-10-22T18:22:04.244Z,4.57
2017-10-22T18:24:31.736Z,8.13
2017-10-22T18:26:59.204Z,4.47
2017-10-22T18:29:26.665Z,7.68
2017-10-22T18:31:54.141Z,9.70
2017-10-22T18:34:21.607Z,4.47
2017-10-22T18:36:49.107Z,11.23
2017-10-22T18:39:16.569Z,4.72
2017-10-22T18:41:44.030Z,6.93
2017-10-22T18:44:11.498Z,3.22
2017-10-22T18:46:38.975Z,5.28
2017-10-22T18:49:07.228Z,9.15
2017-10-22T18:51:34.710Z,5.37
2017-10-22T18:54:02.952Z,5.72
2017-10-22T18:56:30.533Z,7.18
2017-10-22T18:58:58.766Z,3.70
2017-10-22T19:01:26.258Z,5.65
2017-10-22T19:03:54.524Z,4.13
2017-10-22T19:06:22.009Z,8.27
2017-10-22T19:08:50.250Z,7.57
2017-10-22T19:11:17.718Z,3.12
2017-10-22T19:13:45.269Z,4.18
2017-10-22T19:16:12.732Z,5.35
2017-10-22T19:18:40.290Z,3.83
2017-10-22T19:21:07.909Z,8.50
2017-10-22T19:23:35.415Z,3.95
2017-10-22T19:26:02.983Z,6.97
2017-10-22T19:28:31.216Z,5.53
2017-10-22T19:30:58.681Z,7.20
2017-10-22T19:33:26.418Z,14.02
2017-10-22T19:35:53.881Z,4.03
2017-10-22T19:38:21.374Z,6.05
2017-10-22T19:40:48.852Z,3.67
2017-10-22T19:43:17.168Z,3.30
2017-10-22T19:45:44.630Z,6.60
2017-10-22T19:48:12.103Z,7.18
2017-10-22T19:50:39.569Z,8.88
2017-10-22T19:53:07.046Z,3.30
2017-10-22T19:55:34.601Z,5.70
2017-10-22T19:58:02.176Z,4.43
2017-10-22T20:00:30.433Z,8.05
2017-10-22T20:02:57.987Z,9.95
2017-10-22T20:05:25.459Z,6.78
2017-10-22T20:07:53.698Z,8.55
2017-10-22T20:10:21.194Z,7.15
2017-10-22T20:12:49.462Z,3.83
2017-10-22T20:15:17.696Z,9.15
2017-10-22T20:17:45.158Z,4.75
2017-10-22T20:20:12.641Z,6.22
2017-10-22T20:22:40.125Z,4.57
2017-10-22T20:25:08.365Z,5.80
2017-10-22T20:27:35.833Z,3.35
2017-10-22T20:30:03.451Z,4.95
2017-10-22T20:32:30.923Z,4.00
2017-10-22T20:34:58.379Z,3.90
2017-10-22T20:37:25.850Z,6.18
2017-10-22T20:39:53.417Z,4.82
2017-10-22T20:42:20.904Z,4.12
2017-10-22T20:44:49.149Z,3.95
2017-10-22T20:47:16.665Z,3.80
2017-10-22T20:49:44.128Z,8.80
2017-10-22T20:52:11.608Z,11.73
2017-10-22T20:54:39.138Z,2.50
2017-10-22T20:57:06.597Z,5.47
2017-10-22T20:59:34.078Z,5.20
2017-10-22T21:02:01.555Z,4.62
2017-10-22T21:04:29.051Z,4.45
2017-10-22T21:06:56.624Z,5.15
2017-10-22T21:09:24.089Z,7.97
2017-10-22T21:11:51.552Z,3.62
2017-10-22T21:14:19.037Z,2.67
2017-10-22T21:16:46.537Z,7.93
2017-10-22T21:19:14.129Z,6.05
2017-10-22T21:21:41.628Z,3.37
2017-10-22T21:24:09.932Z,4.50
2017-10-22T21:26:37.463Z,5.68
2017-10-22T21:29:05.684Z,2.62
2017-10-22T21:31:33.202Z,6.22
2017-10-22T21:34:01.438Z,3.22
2017-10-22T21:36:28.931Z,3.87
2017-10-22T21:38:57.152Z,3.33
2017-10-22T21:41:24.633Z,3.70
2017-10-22T21:43:52.112Z,6.43
2017-10-22T21:46:20.361Z,4.30
2017-10-22T21:48:47.890Z,6.35
2017-10-22T21:51:15.354Z,4.50
2017-10-22T21:53:42.853Z,4.85
2017-10-22T21:56:10.338Z,2.87
2017-10-22T21:58:37.865Z,3.65
2017-10-22T22:01:05.350Z,8.93
2017-10-22T22:03:32.882Z,4.62
2017-10-22T22:06:01.154Z,4.07
2017-10-22T22:08:28.637Z,7.75
2017-10-22T22:10:56.118Z,5.45
2017-10-22T22:13:23.599Z,6.47
2017-10-22T22:15:51.166Z,3.40
2017-10-22T22:18:18.642Z,5.53
2017-10-22T22:20:46.118Z,6.90
2017-10-22T22:23:14.429Z,3.92
2017-10-22T22:25:41.896Z,5.78
2017-10-22T22:28:09.389Z,4.50
2017-10-22T22:30:36.877Z,4.68
2017-10-22T22:33:04.398Z,6.72
2017-10-22T22:35:31.875Z,6.85
2017-10-22T22:38:00.110Z,4.53
2017-10-22T22:40:27.594Z,8.43
2017-10-22T22:42:55.072Z,3.28
2017-10-22T22:45:23.316Z,5.07
2017-10-22T22:47:50.777Z,4.25
2017-10-22T22:50:18.244Z,4.55
2017-10-22T22:52:45.796Z,5.40
2017-10-22T22:55:13.354Z,7.03
2017-10-22T22:57:40.934Z,3.67
2017-10-22T23:00:08.426Z,7.07
2017-10-22T23:02:35.901Z,6.12
2017-10-22T23:05:03.366Z,7.20
2017-10-22T23:07:30.838Z,3.65
2017-10-22T23:09:58.305Z,5.97
2017-10-22T23:12:25.866Z,5.53
2017-10-22T23:14:53.338Z,11.90
2017-10-22T23:17:21.589Z,6.55
2017-10-22T23:19:49.157Z,6.72
2017-10-22T23:22:17.423Z,6.32
2017-10-22T23:24:44.985Z,8.73
2017-10-22T23:27:13.230Z,5.95
2017-10-22T23:29:40.704Z,6.82
2017-10-22T23:32:08.181Z,7.82
2017-10-22T23:34:36.440Z,5.90
2017-10-22T23:37:04.017Z,11.30
2017-10-22T23:39:32.296Z,9.05
2017-10-22T23:42:00.521Z,7.80
2017-10-22T23:44:28.001Z,5.30
2017-10-22T23:46:55.457Z,6.87
2017-10-22T23:49:22.936Z,7.68
2017-10-22T23:51:51.192Z,12.57
2017-10-22T23:54:18.669Z,10.98
2017-10-22T23:56:46.909Z,9.40
2017-10-22T23:59:14.407Z,10.20
